Nearby METAR Reports

 

K1A5 - Macon/Franklin, North Carolina, USA
Distance from station: WSW 16mi, 25km
Updated: Sun, 23-Apr-2017 5:50am EDT
Light rain, Overcast
Light rain, Overcast
 Wind from calm
Wind: Calm
Temperature: 55°F , 13°C
Dew Point: 54°F , 12°C
Humidity: 94%
Barometer: 29.86 inHg , 1011.2 hPa
Summary: Light rain
Clouds: Overcast
Visibility: 10 miles , 16 km
Cloud details: Partly cloudy 900 ft
Mostly cloudy 3300 ft
Overcast 4200 ft
2017/04/23 09:50 K1A5 230950Z AUTO 00000KT 10SM -RA SCT009 BKN033 OVC042 13/12 A2986 RMK AO2 T01310123
KAVL - Asheville, North Carolina, USA
Distance from station: ENE 36mi, 59km
Updated: Sun, 23-Apr-2017 5:54am EDT
Light rain, Overcast
Light rain, Overcast
 Wind from calm
Wind: Calm
Temperature: 55°F , 13°C
Dew Point: 54°F , 12°C
Humidity: 94%
Barometer: 29.90 inHg , 1012.5 hPa
Summary: Light rain
Clouds: Overcast
Visibility: 10 miles , 16 km
Cloud details: Overcast 1000 ft
2017/04/23 09:54 KAVL 230954Z AUTO 00000KT 10SM -RA OVC010 13/12 A2990 RMK AO2 RAB51 SLP105 P0000 T01330117
 
KRHP - Andrews, North Carolina, USA
Distance from station: WSW 40mi, 64km
Updated: Sun, 23-Apr-2017 5:50am EDT
Rain, Overcast
Rain, Overcast
 Wind from calm
Wind: Calm
Temperature: 55°F , 13°C
Dew Point: 55°F , 13°C
Humidity: 100%
Barometer: 29.84 inHg , 1010.5 hPa
Summary: Rain
Clouds: Overcast
Visibility: 5 miles , 8 km
Cloud details: Mostly cloudy 2500 ft
Mostly cloudy 2900 ft
Overcast 4100 ft
2017/04/23 09:50 KRHP 230950Z AUTO 00000KT 5SM RA BKN025 BKN029 OVC041 13/13 A2984 RMK AO2 P0016 T01330133
KLQK - Pickens, South Carolina, USA
Distance from station: SE 42mi, 68km
Updated: Sun, 23-Apr-2017 5:55am EDT
Light rain, Overcast
Light rain, Overcast
 Wind from ENE
Wind: ENE 3 mph , 6 km/h
Temperature: 59°F , 15°C
Dew Point: 57°F , 14°C
Humidity: 94%
Barometer: 29.87 inHg , 1011.5 hPa
Summary: Light rain
Clouds: Overcast
Visibility: 10 miles , 16 km
Cloud details: Overcast 800 ft
2017/04/23 09:55 KLQK 230955Z AUTO 07003KT 10SM -RA OVC008 15/14 A2987 RMK AO2 T01500144
 
KCEU - Clemson, South Carolina, USA
Distance from station: SSE 46mi, 75km
Updated: Sun, 23-Apr-2017 5:54am EDT
Overcast
Overcast
 Wind from E
Wind: E 7 mph , 11 km/h
Temperature: 61°F , 16°C
Dew Point: 57°F , 14°C
Humidity: 88%
Barometer: 29.87 inHg , 1011.5 hPa
Clouds: Overcast
Visibility: 10 miles , 16 km
Cloud details: Overcast 500 ft
2017/04/23 09:54 KCEU 230954Z AUTO 08006KT 10SM OVC005 16/14 A2987 RMK AO2 RAE40 CIG 004V009 SLP105 P0012 T01610144
KTOC - Toccoa, Georgia, USA
Distance from station: S 49mi, 79km
Updated: Sun, 23-Apr-2017 5:35am EDT
Overcast
Overcast
 Wind from ENE
Wind: ENE 3 mph , 6 km/h
Temperature: 63°F , 17°C
Dew Point: 63°F , 17°C
Humidity: 100%
Barometer: 29.86 inHg , 1011.2 hPa
Clouds: Overcast
Visibility: 10 miles , 16 km
Cloud details: Overcast 400 ft
2017/04/23 09:35 KTOC 230935Z AUTO 07003KT 10SM OVC004 17/17 A2986 RMK AO2